sensor_id;sensor_type;location;lat;lon;timestamp;pressure;altitude;pressure_sealevel;temperature;humidity
60974;BME280;46846;51.528;5.076;2023-02-12T00:00:37;103302.16;;;6.49;79.68
60974;BME280;46846;51.528;5.076;2023-02-12T00:03:03;103306.56;;;6.48;79.81
60974;BME280;46846;51.528;5.076;2023-02-12T00:05:28;103307.44;;;6.49;79.86
60974;BME280;46846;51.528;5.076;2023-02-12T00:07:54;103310.09;;;6.49;79.68
60974;BME280;46846;51.528;5.076;2023-02-12T00:10:20;103303.03;;;6.48;79.55
60974;BME280;46846;51.528;5.076;2023-02-12T00:12:45;103309.22;;;6.48;79.81
60974;BME280;46846;51.528;5.076;2023-02-12T00:15:11;103300.38;;;6.48;79.53
60974;BME280;46846;51.528;5.076;2023-02-12T00:17:36;103310.97;;;6.48;79.94
60974;BME280;46846;51.528;5.076;2023-02-12T00:20:02;103302.97;;;6.46;79.39
60974;BME280;46846;51.528;5.076;2023-02-12T00:22:27;103302.91;;;6.43;79.44
60974;BME280;46846;51.528;5.076;2023-02-12T00:24:54;103306.44;;;6.42;79.92
60974;BME280;46846;51.528;5.076;2023-02-12T00:27:19;103307.25;;;6.39;79.45
60974;BME280;46846;51.528;5.076;2023-02-12T00:29:45;103307.25;;;6.39;79.80
60974;BME280;46846;51.528;5.076;2023-02-12T00:32:10;103308.13;;;6.40;79.54
60974;BME280;46846;51.528;5.076;2023-02-12T00:34:36;103316.06;;;6.40;79.80
60974;BME280;46846;51.528;5.076;2023-02-12T00:37:01;103316.91;;;6.39;79.92
60974;BME280;46846;51.528;5.076;2023-02-12T00:39:26;103311.63;;;6.39;79.69
60974;BME280;46846;51.528;5.076;2023-02-12T00:41:52;103317.78;;;6.36;79.90
60974;BME280;46846;51.528;5.076;2023-02-12T00:44:17;103308.06;;;6.37;80.05
60974;BME280;46846;51.528;5.076;2023-02-12T00:46:42;103306.31;;;6.37;79.38
60974;BME280;46846;51.528;5.076;2023-02-12T00:49:08;103305.41;;;6.37;79.91
60974;BME280;46846;51.528;5.076;2023-02-12T00:51:33;103301.91;;;6.36;79.64
60974;BME280;46846;51.528;5.076;2023-02-12T00:53:58;103305.38;;;6.35;80.15
60974;BME280;46846;51.528;5.076;2023-02-12T00:56:24;103300.06;;;6.34;79.67
60974;BME280;46846;51.528;5.076;2023-02-12T00:58:49;103304.47;;;6.33;79.81
60974;BME280;46846;51.528;5.076;2023-02-12T01:01:15;103312.41;;;6.33;79.85
60974;BME280;46846;51.528;5.076;2023-02-12T01:03:40;103303.53;;;6.31;79.84
60974;BME280;46846;51.528;5.076;2023-02-12T01:06:06;103300.91;;;6.31;79.97
60974;BME280;46846;51.528;5.076;2023-02-12T01:08:31;103302.63;;;6.31;79.85
60974;BME280;46846;51.528;5.076;2023-02-12T01:10:59;103300.91;;;6.31;80.06
60974;BME280;46846;51.528;5.076;2023-02-12T01:13:26;103297.34;;;6.31;79.85
60974;BME280;46846;51.528;5.076;2023-02-12T01:16:12;103302.63;;;6.31;79.92
60974;BME280;46846;51.528;5.076;2023-02-12T01:18:38;103301.75;;;6.30;79.89
60974;BME280;46846;51.528;5.076;2023-02-12T01:21:09;103299.06;;;6.28;80.07
60974;BME280;46846;51.528;5.076;2023-02-12T01:23:34;103300.84;;;6.29;80.39
60974;BME280;46846;51.528;5.076;2023-02-12T01:26:00;103299.97;;;6.29;79.78
60974;BME280;46846;51.528;5.076;2023-02-12T01:28:25;103304.41;;;6.30;79.79
60974;BME280;46846;51.528;5.076;2023-02-12T01:30:50;103298.22;;;6.29;79.81
60974;BME280;46846;51.528;5.076;2023-02-12T01:33:16;103301.75;;;6.30;79.87
60974;BME280;46846;51.528;5.076;2023-02-12T01:35:41;103300.84;;;6.29;80.21
60974;BME280;46846;51.528;5.076;2023-02-12T01:38:06;103293.78;;;6.28;79.71
60974;BME280;46846;51.528;5.076;2023-02-12T01:40:32;103295.50;;;6.28;79.70
60974;BME280;46846;51.528;5.076;2023-02-12T01:43:00;103296.38;;;6.27;79.89
60974;BME280;46846;51.528;5.076;2023-02-12T01:48:01;103301.66;;;6.27;80.35
60974;BME280;46846;51.528;5.076;2023-02-12T01:50:26;103296.38;;;6.25;79.75
60974;BME280;46846;51.528;5.076;2023-02-12T01:52:54;103301.66;;;6.25;80.06
60974;BME280;46846;51.528;5.076;2023-02-12T01:55:22;103299.00;;;6.25;79.81
60974;BME280;46846;51.528;5.076;2023-02-12T01:57:49;103299.00;;;6.25;79.68
60974;BME280;46846;51.528;5.076;2023-02-12T02:00:22;103296.31;;;6.24;79.56
60974;BME280;46846;51.528;5.076;2023-02-12T02:02:52;103300.69;;;6.23;80.06
60974;BME280;46846;51.528;5.076;2023-02-12T02:05:47;103294.56;;;6.24;80.45
60974;BME280;46846;51.528;5.076;2023-02-12T02:08:14;103291.03;;;6.24;79.52
60974;BME280;46846;51.528;5.076;2023-02-12T02:10:40;103291.91;;;6.23;79.85
60974;BME280;46846;51.528;5.076;2023-02-12T02:13:05;103290.13;;;6.23;79.93
60974;BME280;46846;51.528;5.076;2023-02-12T02:15:53;103286.59;;;6.23;79.89
60974;BME280;46846;51.528;5.076;2023-02-12T02:18:34;103291.91;;;6.23;79.45
60974;BME280;46846;51.528;5.076;2023-02-12T02:32:05;103297.09;;;6.20;79.63
60974;BME280;46846;51.528;5.076;2023-02-12T02:37:35;103296.22;;;6.21;79.81
60974;BME280;46846;51.528;5.076;2023-02-12T02:40:12;103287.41;;;6.20;80.23
60974;BME280;46846;51.528;5.076;2023-02-12T02:42:48;103296.22;;;6.21;80.31
60974;BME280;46846;51.528;5.076;2023-02-12T02:45:34;103292.66;;;6.19;79.52
60974;BME280;46846;51.528;5.076;2023-02-12T02:48:09;103295.31;;;6.19;80.17
60974;BME280;46846;51.528;5.076;2023-02-12T02:50:40;103289.16;;;6.18;79.77
60974;BME280;46846;51.528;5.076;2023-02-12T02:53:29;103292.59;;;6.15;79.64
60974;BME280;46846;51.528;5.076;2023-02-12T02:55:58;103306.75;;;6.18;80.14
60974;BME280;46846;51.528;5.076;2023-02-12T02:58:52;103303.19;;;6.15;79.79
60974;BME280;46846;51.528;5.076;2023-02-12T03:04:00;103293.47;;;6.14;80.30
60974;BME280;46846;51.528;5.076;2023-02-12T03:09:11;103294.28;;;6.13;79.74
60974;BME280;46846;51.528;5.076;2023-02-12T03:11:38;103289.00;;;6.13;79.79
60974;BME280;46846;51.528;5.076;2023-02-12T03:14:21;103282.84;;;6.13;79.95
60974;BME280;46846;51.528;5.076;2023-02-12T03:16:58;103283.72;;;6.13;79.99
60974;BME280;46846;51.528;5.076;2023-02-12T03:19:29;103281.94;;;6.12;80.34
60974;BME280;46846;51.528;5.076;2023-02-12T03:22:10;103284.56;;;6.11;79.95
60974;BME280;46846;51.528;5.076;2023-02-12T03:24:44;103273.94;;;6.09;80.17
60974;BME280;46846;51.528;5.076;2023-02-12T03:27:25;103286.25;;;6.09;80.03
60974;BME280;46846;51.528;5.076;2023-02-12T03:29:53;103274.81;;;6.08;79.81
60974;BME280;46846;51.528;5.076;2023-02-12T03:37:36;103275.66;;;6.07;80.03
60974;BME280;46846;51.528;5.076;2023-02-12T03:45:59;103279.13;;;6.05;79.63
60974;BME280;46846;51.528;5.076;2023-02-12T03:48:46;103287.00;;;6.03;80.12
60974;BME280;46846;51.528;5.076;2023-02-12T03:51:25;103284.38;;;6.03;80.14
60974;BME280;46846;51.528;5.076;2023-02-12T03:53:55;103278.13;;;6.01;80.11
60974;BME280;46846;51.528;5.076;2023-02-12T03:56:25;103286.91;;;6.00;80.23
60974;BME280;46846;51.528;5.076;2023-02-12T03:58:51;103281.59;;;5.98;80.20
60974;BME280;46846;51.528;5.076;2023-02-12T04:01:17;103280.72;;;5.99;80.21
60974;BME280;46846;51.528;5.076;2023-02-12T04:03:42;103266.59;;;5.97;79.84
60974;BME280;46846;51.528;5.076;2023-02-12T04:06:34;103282.44;;;5.97;79.68
60974;BME280;46846;51.528;5.076;2023-02-12T04:09:02;103286.81;;;5.97;79.84
60974;BME280;46846;51.528;5.076;2023-02-12T04:33:22;103302.56;;;5.92;80.34
60974;BME280;46846;51.528;5.076;2023-02-12T04:36:02;103313.16;;;5.92;79.87
60974;BME280;46846;51.528;5.076;2023-02-12T04:38:34;103314.06;;;5.93;80.46
60974;BME280;46846;51.528;5.076;2023-02-12T04:41:04;103320.19;;;5.92;80.11
60974;BME280;46846;51.528;5.076;2023-02-12T04:43:33;103321.03;;;5.91;80.25
60974;BME280;46846;51.528;5.076;2023-02-12T04:46:03;103313.09;;;5.91;80.63
60974;BME280;46846;51.528;5.076;2023-02-12T04:48:29;103311.31;;;5.89;79.85
60974;BME280;46846;51.528;5.076;2023-02-12T04:50:55;103305.97;;;5.86;80.13
60974;BME280;46846;51.528;5.076;2023-02-12T04:53:20;103313.03;;;5.87;80.09
60974;BME280;46846;51.528;5.076;2023-02-12T04:55:45;103313.94;;;5.88;80.50
60974;BME280;46846;51.528;5.076;2023-02-12T04:58:11;103310.31;;;5.84;80.30
60974;BME280;46846;51.528;5.076;2023-02-12T05:00:37;103312.06;;;5.84;80.31
60974;BME280;46846;51.528;5.076;2023-02-12T05:03:02;103309.38;;;5.82;79.93
60974;BME280;46846;51.528;5.076;2023-02-12T05:05:28;103315.50;;;5.81;80.20
60974;BME280;46846;51.528;5.076;2023-02-12T05:07:53;103315.50;;;5.81;80.59
60974;BME280;46846;51.528;5.076;2023-02-12T05:10:19;103308.50;;;5.82;80.22
60974;BME280;46846;51.528;5.076;2023-02-12T05:12:44;103322.56;;;5.82;80.47
60974;BME280;46846;51.528;5.076;2023-02-12T05:15:10;103319.06;;;5.82;79.75
60974;BME280;46846;51.528;5.076;2023-02-12T05:17:35;103323.44;;;5.81;80.05
60974;BME280;46846;51.528;5.076;2023-02-12T05:20:00;103314.63;;;5.81;79.99
60974;BME280;46846;51.528;5.076;2023-02-12T05:22:26;103314.59;;;5.79;80.07
60974;BME280;46846;51.528;5.076;2023-02-12T05:24:51;103317.19;;;5.78;80.05
60974;BME280;46846;51.528;5.076;2023-02-12T05:27:17;103311.03;;;5.77;80.87
60974;BME280;46846;51.528;5.076;2023-02-12T05:29:42;103316.31;;;5.77;80.24
60974;BME280;46846;51.528;5.076;2023-02-12T05:32:08;103316.31;;;5.77;80.38
60974;BME280;46846;51.528;5.076;2023-02-12T05:34:33;103318.09;;;5.78;80.08
60974;BME280;46846;51.528;5.076;2023-02-12T05:36:59;103313.66;;;5.77;80.67
60974;BME280;46846;51.528;5.076;2023-02-12T05:39:24;103315.41;;;5.77;80.08
60974;BME280;46846;51.528;5.076;2023-02-12T05:41:50;103323.28;;;5.75;80.42
60974;BME280;46846;51.528;5.076;2023-02-12T05:44:15;103324.13;;;5.74;80.55
60974;BME280;46846;51.528;5.076;2023-02-12T05:46:41;103323.25;;;5.73;80.23
60974;BME280;46846;51.528;5.076;2023-02-12T05:49:07;103324.94;;;5.70;79.85
60974;BME280;46846;51.528;5.076;2023-02-12T05:51:33;103324.94;;;5.70;80.45
60974;BME280;46846;51.528;5.076;2023-02-12T05:54:02;103324.06;;;5.71;80.64
60974;BME280;46846;51.528;5.076;2023-02-12T05:56:34;103325.81;;;5.70;80.65
60974;BME280;46846;51.528;5.076;2023-02-12T05:59:02;103324.00;;;5.69;80.37
60974;BME280;46846;51.528;5.076;2023-02-12T06:01:34;103326.66;;;5.69;80.59
60974;BME280;46846;51.528;5.076;2023-02-12T06:04:01;103323.97;;;5.68;80.69
60974;BME280;46846;51.528;5.076;2023-02-12T06:06:29;103330.16;;;5.68;80.37
60974;BME280;46846;51.528;5.076;2023-02-12T06:08:54;103323.09;;;5.69;80.92
60974;BME280;46846;51.528;5.076;2023-02-12T06:11:20;103323.09;;;5.67;79.96
60974;BME280;46846;51.528;5.076;2023-02-12T06:13:46;103325.69;;;5.66;80.76
60974;BME280;46846;51.528;5.076;2023-02-12T06:16:16;103330.91;;;5.63;80.02
60974;BME280;46846;51.528;5.076;2023-02-12T06:18:41;103331.78;;;5.63;80.71
60974;BME280;46846;51.528;5.076;2023-02-12T06:21:06;103334.41;;;5.63;80.34
60974;BME280;46846;51.528;5.076;2023-02-12T06:23:32;103334.41;;;5.63;80.72
60974;BME280;46846;51.528;5.076;2023-02-12T06:25:57;103338.81;;;5.63;80.64
60974;BME280;46846;51.528;5.076;2023-02-12T06:28:23;103338.81;;;5.63;80.34
60974;BME280;46846;51.528;5.076;2023-02-12T06:30:48;103331.75;;;5.61;80.39
60974;BME280;46846;51.528;5.076;2023-02-12T06:33:14;103336.13;;;5.61;80.69
60974;BME280;46846;51.528;5.076;2023-02-12T06:35:39;103337.03;;;5.61;80.18
60974;BME280;46846;51.528;5.076;2023-02-12T06:38:05;103339.69;;;5.61;80.71
60974;BME280;46846;51.528;5.076;2023-02-12T06:40:30;103339.53;;;5.57;80.27
60974;BME280;46846;51.528;5.076;2023-02-12T06:42:56;103340.44;;;5.57;80.42
60974;BME280;46846;51.528;5.076;2023-02-12T06:45:21;103349.28;;;5.58;80.47
60974;BME280;46846;51.528;5.076;2023-02-12T06:47:47;103340.44;;;5.57;80.61
60974;BME280;46846;51.528;5.076;2023-02-12T06:50:12;103341.34;;;5.58;80.55
60974;BME280;46846;51.528;5.076;2023-02-12T06:52:38;103343.06;;;5.57;80.61
60974;BME280;46846;51.528;5.076;2023-02-12T06:55:03;103344.81;;;5.57;80.89
60974;BME280;46846;51.528;5.076;2023-02-12T06:57:29;103349.22;;;5.56;80.37
60974;BME280;46846;51.528;5.076;2023-02-12T06:59:55;103354.50;;;5.56;80.44
60974;BME280;46846;51.528;5.076;2023-02-12T07:02:20;103353.59;;;5.56;80.30
60974;BME280;46846;51.528;5.076;2023-02-12T07:04:46;103354.44;;;5.55;80.53
60974;BME280;46846;51.528;5.076;2023-02-12T07:07:11;103352.72;;;5.55;80.84
60974;BME280;46846;51.528;5.076;2023-02-12T07:09:37;103352.72;;;5.55;80.59
60974;BME280;46846;51.528;5.076;2023-02-12T07:12:02;103359.78;;;5.56;80.62
60974;BME280;46846;51.528;5.076;2023-02-12T07:14:28;103357.09;;;5.55;80.92
60974;BME280;46846;51.528;5.076;2023-02-12T07:16:54;103366.78;;;5.54;80.31
60974;BME280;46846;51.528;5.076;2023-02-12T07:19:20;103365.00;;;5.55;80.65
60974;BME280;46846;51.528;5.076;2023-02-12T07:21:45;103372.06;;;5.54;80.28
60974;BME280;46846;51.528;5.076;2023-02-12T07:24:12;103372.06;;;5.54;80.83
60974;BME280;46846;51.528;5.076;2023-02-12T07:26:38;103372.06;;;5.54;80.68
60974;BME280;46846;51.528;5.076;2023-02-12T07:29:04;103373.84;;;5.55;80.84
60974;BME280;46846;51.528;5.076;2023-02-12T07:31:29;103383.56;;;5.56;80.39
60974;BME280;46846;51.528;5.076;2023-02-12T07:33:57;103379.13;;;5.55;80.53
60974;BME280;46846;51.528;5.076;2023-02-12T07:36:24;103379.13;;;5.55;80.63
60974;BME280;46846;51.528;5.076;2023-02-12T07:38:50;103392.34;;;5.57;80.75
60974;BME280;46846;51.528;5.076;2023-02-12T07:41:21;103387.06;;;5.55;80.13
60974;BME280;46846;51.528;5.076;2023-02-12T07:43:47;103394.13;;;5.56;80.17
60974;BME280;46846;51.528;5.076;2023-02-12T07:46:16;103386.19;;;5.56;80.85
60974;BME280;46846;51.528;5.076;2023-02-12T07:48:43;103390.63;;;5.57;80.43
60974;BME280;46846;51.528;5.076;2023-02-12T07:51:10;103390.56;;;5.54;80.40
60974;BME280;46846;51.528;5.076;2023-02-12T07:53:37;103387.94;;;5.56;80.61
60974;BME280;46846;51.528;5.076;2023-02-12T07:56:16;103385.34;;;5.57;80.66
60974;BME280;46846;51.528;5.076;2023-02-12T07:58:44;103384.44;;;5.57;80.64
60974;BME280;46846;51.528;5.076;2023-02-12T08:01:18;103387.97;;;5.57;80.88
60974;BME280;46846;51.528;5.076;2023-02-12T08:03:44;103389.72;;;5.57;80.36
60974;BME280;46846;51.528;5.076;2023-02-12T08:06:12;103383.56;;;5.56;80.59
60974;BME280;46846;51.528;5.076;2023-02-12T08:08:38;103387.06;;;5.57;80.63
60974;BME280;46846;51.528;5.076;2023-02-12T08:11:07;103389.69;;;5.55;80.66
60974;BME280;46846;51.528;5.076;2023-02-12T08:13:34;103390.63;;;5.57;80.33
60974;BME280;46846;51.528;5.076;2023-02-12T08:16:02;103393.25;;;5.57;80.12
60974;BME280;46846;51.528;5.076;2023-02-12T08:18:29;103397.63;;;5.57;80.49
60974;BME280;46846;51.528;5.076;2023-02-12T08:21:00;103395.91;;;5.57;80.47
60974;BME280;46846;51.528;5.076;2023-02-12T08:23:25;103394.13;;;5.56;80.83
60974;BME280;46846;51.528;5.076;2023-02-12T08:25:51;103404.75;;;5.58;80.04
60974;BME280;46846;51.528;5.076;2023-02-12T08:28:16;103405.63;;;5.58;80.17
60974;BME280;46846;51.528;5.076;2023-02-12T08:30:41;103403.81;;;5.57;80.89
60974;BME280;46846;51.528;5.076;2023-02-12T08:33:07;103402.91;;;5.57;79.88
60974;BME280;46846;51.528;5.076;2023-02-12T08:35:32;103397.63;;;5.57;80.48
60974;BME280;46846;51.528;5.076;2023-02-12T08:37:58;103402.09;;;5.58;80.04
60974;BME280;46846;51.528;5.076;2023-02-12T08:40:23;103398.53;;;5.57;79.94
60974;BME280;46846;51.528;5.076;2023-02-12T08:42:48;103411.81;;;5.59;80.26
60974;BME280;46846;51.528;5.076;2023-02-12T08:45:14;103409.16;;;5.59;80.51
60974;BME280;46846;51.528;5.076;2023-02-12T08:47:39;103413.53;;;5.58;79.86
60974;BME280;46846;51.528;5.076;2023-02-12T08:50:05;103410.91;;;5.58;79.87
60974;BME280;46846;51.528;5.076;2023-02-12T08:52:30;103413.72;;;5.65;80.01
60974;BME280;46846;51.528;5.076;2023-02-12T08:54:58;103412.00;;;5.67;79.61
60974;BME280;46846;51.528;5.076;2023-02-12T08:57:23;103418.25;;;5.70;79.64
60974;BME280;46846;51.528;5.076;2023-02-12T08:59:49;103418.22;;;5.69;79.43
60974;BME280;46846;51.528;5.076;2023-02-12T09:02:14;103420.84;;;5.69;79.47
60974;BME280;46846;51.528;5.076;2023-02-12T09:04:39;103420.84;;;5.69;79.65
60974;BME280;46846;51.528;5.076;2023-02-12T09:07:05;103418.19;;;5.67;79.33
60974;BME280;46846;51.528;5.076;2023-02-12T09:09:30;103419.91;;;5.67;79.27
60974;BME280;46846;51.528;5.076;2023-02-12T09:11:56;103425.22;;;5.67;79.21
60974;BME280;46846;51.528;5.076;2023-02-12T09:14:21;103418.13;;;5.66;79.47
60974;BME280;46846;51.528;5.076;2023-02-12T09:16:48;103414.63;;;5.67;78.71
60974;BME280;46846;51.528;5.076;2023-02-12T09:19:13;103409.34;;;5.67;78.98
60974;BME280;46846;51.528;5.076;2023-02-12T09:21:40;103412.91;;;5.67;78.74
60974;BME280;46846;51.528;5.076;2023-02-12T09:24:05;103419.06;;;5.68;78.80
60974;BME280;46846;51.528;5.076;2023-02-12T09:26:31;103428.78;;;5.69;78.27
60974;BME280;46846;51.528;5.076;2023-02-12T09:28:56;103426.13;;;5.69;77.93
60974;BME280;46846;51.528;5.076;2023-02-12T09:31:26;103430.50;;;5.67;77.96
60974;BME280;46846;51.528;5.076;2023-02-12T09:33:56;103430.50;;;5.67;77.24
60974;BME280;46846;51.528;5.076;2023-02-12T09:36:22;103434.06;;;5.69;76.70
60974;BME280;46846;51.528;5.076;2023-02-12T09:38:48;103430.59;;;5.70;77.08
60974;BME280;46846;51.528;5.076;2023-02-12T09:43:55;103429.75;;;5.72;76.64
60974;BME280;46846;51.528;5.076;2023-02-12T09:46:32;103434.16;;;5.72;76.96
60974;BME280;46846;51.528;5.076;2023-02-12T09:49:14;103435.03;;;5.72;76.30
60974;BME280;46846;51.528;5.076;2023-02-12T09:51:44;103435.94;;;5.73;76.40
60974;BME280;46846;51.528;5.076;2023-02-12T09:54:16;103436.88;;;5.75;76.24
60974;BME280;46846;51.528;5.076;2023-02-12T09:56:46;103433.38;;;5.76;76.19
60974;BME280;46846;51.528;5.076;2023-02-12T10:01:50;103440.47;;;5.77;75.19
60974;BME280;46846;51.528;5.076;2023-02-12T10:04:15;103439.63;;;5.78;75.35
60974;BME280;46846;51.528;5.076;2023-02-12T10:06:48;103436.97;;;5.78;75.21
60974;BME280;46846;51.528;5.076;2023-02-12T10:17:17;103435.03;;;5.72;75.87
60974;BME280;46846;51.528;5.076;2023-02-12T10:27:53;103439.63;;;5.78;74.15
60974;BME280;46846;51.528;5.076;2023-02-12T10:30:38;103439.63;;;5.78;73.73
60974;BME280;46846;51.528;5.076;2023-02-12T10:33:15;103440.56;;;5.80;73.29
60974;BME280;46846;51.528;5.076;2023-02-12T10:35:47;103440.59;;;5.82;73.94
60974;BME280;46846;51.528;5.076;2023-02-12T10:38:24;103439.75;;;5.83;74.10
60974;BME280;46846;51.528;5.076;2023-02-12T10:40:52;103437.16;;;5.84;73.41
60974;BME280;46846;51.528;5.076;2023-02-12T10:43:22;103436.31;;;5.85;73.48
60974;BME280;46846;51.528;5.076;2023-02-12T10:45:48;103438.97;;;5.87;73.15
60974;BME280;46846;51.528;5.076;2023-02-12T10:48:23;103427.50;;;5.86;73.22
60974;BME280;46846;51.528;5.076;2023-02-12T10:53:43;103429.31;;;5.87;72.69
60974;BME280;46846;51.528;5.076;2023-02-12T10:58:52;103424.94;;;5.88;72.14
60974;BME280;46846;51.528;5.076;2023-02-12T11:01:25;103430.22;;;5.89;72.56
60974;BME280;46846;51.528;5.076;2023-02-12T11:03:52;103426.72;;;5.91;72.64
60974;BME280;46846;51.528;5.076;2023-02-12T11:06:20;103426.72;;;5.91;72.29
60974;BME280;46846;51.528;5.076;2023-02-12T11:08:46;103425.91;;;5.92;72.11
60974;BME280;46846;51.528;5.076;2023-02-12T11:11:17;103427.69;;;5.93;71.88
60974;BME280;46846;51.528;5.076;2023-02-12T11:13:47;103417.97;;;5.92;72.03
60974;BME280;46846;51.528;5.076;2023-02-12T11:16:26;103417.97;;;5.92;72.24
60974;BME280;46846;51.528;5.076;2023-02-12T11:18:58;103409.19;;;5.93;72.37
60974;BME280;46846;51.528;5.076;2023-02-12T11:21:24;103406.53;;;5.93;71.89
60974;BME280;46846;51.528;5.076;2023-02-12T11:23:49;103408.31;;;5.94;71.70
60974;BME280;46846;51.528;5.076;2023-02-12T11:29:22;103404.78;;;5.93;71.93
60974;BME280;46846;51.528;5.076;2023-02-12T11:32:08;103408.38;;;5.95;71.76
60974;BME280;46846;51.528;5.076;2023-02-12T11:34:39;103407.47;;;5.95;71.51
60974;BME280;46846;51.528;5.076;2023-02-12T11:37:13;103403.09;;;5.95;71.79
60974;BME280;46846;51.528;5.076;2023-02-12T11:39:39;103395.16;;;5.95;71.44
60974;BME280;46846;51.528;5.076;2023-02-12T11:42:16;103396.03;;;5.96;71.86
60974;BME280;46846;51.528;5.076;2023-02-12T11:44:49;103397.81;;;5.97;71.15
60974;BME280;46846;51.528;5.076;2023-02-12T11:47:33;103397.81;;;5.97;71.23
60974;BME280;46846;51.528;5.076;2023-02-12T11:52:28;103394.31;;;5.98;71.09
60974;BME280;46846;51.528;5.076;2023-02-12T11:54:59;103393.50;;;5.99;71.24
60974;BME280;46846;51.528;5.076;2023-02-12T11:57:45;103395.28;;;6.00;71.39
60974;BME280;46846;51.528;5.076;2023-02-12T12:02:46;103391.78;;;6.01;71.48
60974;BME280;46846;51.528;5.076;2023-02-12T12:05:17;103388.22;;;6.00;71.41
60974;BME280;46846;51.528;5.076;2023-02-12T12:07:49;103385.59;;;6.00;70.88
60974;BME280;46846;51.528;5.076;2023-02-12T12:10:33;103383.03;;;6.02;70.94
60974;BME280;46846;51.528;5.076;2023-02-12T12:13:03;103387.44;;;6.03;70.77
60974;BME280;46846;51.528;5.076;2023-02-12T12:15:31;103384.84;;;6.05;70.50
60974;BME280;46846;51.528;5.076;2023-02-12T12:18:29;103382.22;;;6.06;70.81
60974;BME280;46846;51.528;5.076;2023-02-12T12:24:16;103376.94;;;6.06;70.66
60974;BME280;46846;51.528;5.076;2023-02-12T12:26:39;103368.88;;;6.01;71.45
60974;BME280;46846;51.528;5.076;2023-02-12T12:29:17;103370.72;;;6.04;69.77
60974;BME280;46846;51.528;5.076;2023-02-12T12:31:52;103370.72;;;6.04;70.71
60974;BME280;46846;51.528;5.076;2023-02-12T12:34:27;103359.34;;;6.07;70.56
60974;BME280;46846;51.528;5.076;2023-02-12T12:37:13;103357.63;;;6.07;70.66
60974;BME280;46846;51.528;5.076;2023-02-12T12:56:40;103352.44;;;6.13;70.71
60974;BME280;46846;51.528;5.076;2023-02-12T13:04:46;103342.84;;;6.15;70.37
60974;BME280;46846;51.528;5.076;2023-02-12T13:07:45;103329.63;;;6.17;70.12
60974;BME280;46846;51.528;5.076;2023-02-12T13:13:13;103327.91;;;6.18;70.35
60974;BME280;46846;51.528;5.076;2023-02-12T13:15:50;103335.78;;;6.16;70.68
60974;BME280;46846;51.528;5.076;2023-02-12T13:29:12;103316.56;;;6.22;70.12
60974;BME280;46846;51.528;5.076;2023-02-12T13:31:50;103318.34;;;6.24;69.69
60974;BME280;46846;51.528;5.076;2023-02-12T13:34:18;103310.47;;;6.26;69.96
60974;BME280;46846;51.528;5.076;2023-02-12T13:36:45;103306.94;;;6.27;69.63
60974;BME280;46846;51.528;5.076;2023-02-12T13:39:17;103307.88;;;6.27;70.18
60974;BME280;46846;51.528;5.076;2023-02-12T13:41:53;103307.00;;;6.28;69.80
60974;BME280;46846;51.528;5.076;2023-02-12T13:44:26;103317.63;;;6.30;69.11
60974;BME280;46846;51.528;5.076;2023-02-12T13:52:35;103305.31;;;6.32;69.52
60974;BME280;46846;51.528;5.076;2023-02-12T13:57:43;103301.91;;;6.36;68.81
60974;BME280;46846;51.528;5.076;2023-02-12T14:03:13;103297.44;;;6.35;69.26
60974;BME280;46846;51.528;5.076;2023-02-12T14:05:38;103296.63;;;6.36;69.49
60974;BME280;46846;51.528;5.076;2023-02-12T14:08:05;103296.63;;;6.36;71.05
60974;BME280;46846;51.528;5.076;2023-02-12T14:10:38;103290.34;;;6.33;72.48
60974;BME280;46846;51.528;5.076;2023-02-12T14:13:12;103288.59;;;6.33;71.86
60974;BME280;46846;51.528;5.076;2023-02-12T14:15:41;103280.75;;;6.36;71.12
60974;BME280;46846;51.528;5.076;2023-02-12T14:18:38;103281.63;;;6.37;70.58
60974;BME280;46846;51.528;5.076;2023-02-12T14:23:35;103284.31;;;6.40;70.00
60974;BME280;46846;51.528;5.076;2023-02-12T14:26:11;103285.22;;;6.40;70.05
60974;BME280;46846;51.528;5.076;2023-02-12T14:28:55;103282.59;;;6.40;70.33
60974;BME280;46846;51.528;5.076;2023-02-12T14:31:31;103290.56;;;6.43;70.87
60974;BME280;46846;51.528;5.076;2023-02-12T14:36:40;103285.31;;;6.45;69.67
60974;BME280;46846;51.528;5.076;2023-02-12T14:41:46;103276.53;;;6.46;70.20
60974;BME280;46846;51.528;5.076;2023-02-12T14:46:55;103272.06;;;6.43;69.63
60974;BME280;46846;51.528;5.076;2023-02-12T14:49:33;103269.50;;;6.47;70.18
60974;BME280;46846;51.528;5.076;2023-02-12T14:59:43;103264.25;;;6.48;70.70
60974;BME280;46846;51.528;5.076;2023-02-12T15:02:22;103266.03;;;6.49;70.40
60974;BME280;46846;51.528;5.076;2023-02-12T15:04:50;103267.00;;;6.53;69.69
60974;BME280;46846;51.528;5.076;2023-02-12T15:07:23;103263.50;;;6.54;70.27
60974;BME280;46846;51.528;5.076;2023-02-12T15:10:07;103270.53;;;6.53;69.84
60974;BME280;46846;51.528;5.076;2023-02-12T15:12:45;103267.91;;;6.55;69.64
60974;BME280;46846;51.528;5.076;2023-02-12T15:15:14;103267.88;;;6.53;70.73
60974;BME280;46846;51.528;5.076;2023-02-12T15:17:53;103267.13;;;6.59;70.25
60974;BME280;46846;51.528;5.076;2023-02-12T15:20:24;103260.22;;;6.66;69.82
60974;BME280;46846;51.528;5.076;2023-02-12T15:22:52;103262.94;;;6.70;69.73
60974;BME280;46846;51.528;5.076;2023-02-12T15:25:27;103262.94;;;6.70;70.16
60974;BME280;46846;51.528;5.076;2023-02-12T15:28:29;103261.22;;;6.71;69.93
60974;BME280;46846;51.528;5.076;2023-02-12T15:30:47;103253.22;;;6.69;69.83
60974;BME280;46846;51.528;5.076;2023-02-12T15:33:23;103252.31;;;6.69;70.29
60974;BME280;46846;51.528;5.076;2023-02-12T15:35:51;103247.03;;;6.67;70.73
60974;BME280;46846;51.528;5.076;2023-02-12T15:38:19;103254.97;;;6.67;70.79
60974;BME280;46846;51.528;5.076;2023-02-12T15:40:58;103254.09;;;6.68;69.75
60974;BME280;46846;51.528;5.076;2023-02-12T15:43:27;103250.59;;;6.69;70.17
60974;BME280;46846;51.528;5.076;2023-02-12T15:45:56;103252.41;;;6.72;70.24
60974;BME280;46846;51.528;5.076;2023-02-12T15:48:23;103250.63;;;6.73;70.07
60974;BME280;46846;51.528;5.076;2023-02-12T15:51:09;103250.63;;;6.73;69.64